Time;durP1;ratioP1;P1;durP2;ratioP2;P2;SDS_P1;SDS_P2;PMS_P1;PMS_P2;Temp;Humidity;BMP_temperature;BMP_pressure;BME280_temperature;BME280_humidity;BME280_pressure;Samples;Min_cycle;Max_cycle;Signal;HPM_P1;HPM_P2
2023/11/09 00:00:56;;;;;;;;;;;8.30;86.00;;;;;;5091926;27;19956;-61
2023/11/09 00:03:33;;;;;;;;;;;8.20;86.10;;;;;;5100834;27;19924;-62
2023/11/09 00:06:06;;;;;;;;;;;8.30;86.00;;;;;;5099074;28;20019;-60
2023/11/09 00:08:42;;;;;;;;;;;8.20;85.90;;;;;;5092619;28;20462;-59
2023/11/09 00:11:15;;;;;;;;;;;8.20;85.70;;;;;;5093429;28;19971;-61
2023/11/09 00:13:49;;;;;;;;;;;8.20;85.70;;;;;;5098935;28;19934;-61
2023/11/09 00:16:23;;;;;;;;;;;8.20;85.70;;;;;;5095254;28;19928;-62
2023/11/09 00:18:52;;;;;;;;;;;8.20;85.70;;;;;;5095110;28;19924;-61
2023/11/09 00:21:51;;;;;;;;;;;8.10;85.90;;;;;;5089775;28;20396;-60
2023/11/09 00:24:30;;;;;;;;;;;8.20;86.00;;;;;;5099733;28;19928;-61
2023/11/09 00:27:04;;;;;;;;;;;8.20;86.00;;;;;;5099495;28;19974;-59
2023/11/09 00:29:37;;;;;;;;;;;8.20;86.00;;;;;;5113900;27;19924;-60
2023/11/09 00:32:12;;;;;;;;;;;8.20;86.20;;;;;;5114209;27;19928;-61
2023/11/09 00:34:49;;;;;;;;;;;8.20;86.30;;;;;;5095984;28;19930;-61
2023/11/09 00:37:32;;;;;;;;;;;8.10;86.20;;;;;;5092317;28;19955;-62
2023/11/09 00:40:10;;;;;;;;;;;8.10;86.20;;;;;;5095727;28;19950;-69
2023/11/09 00:42:44;;;;;;;;;;;8.20;86.20;;;;;;5109212;28;19947;-68
2023/11/09 00:45:18;;;;;;;;;;;8.20;86.20;;;;;;5096241;28;20013;-69
2023/11/09 00:47:55;;;;;;;;;;;8.20;86.30;;;;;;5083209;28;19977;-68
2023/11/09 00:50:29;;;;;;;;;;;8.20;86.30;;;;;;5099211;28;20906;-68
2023/11/09 00:53:02;;;;;;;;;;;8.20;86.20;;;;;;5096331;28;20306;-68
2023/11/09 00:55:35;;;;;;;;;;;8.10;86.30;;;;;;5101712;28;19931;-69
2023/11/09 00:58:08;;;;;;;;;;;8.10;86.40;;;;;;5094198;28;19935;-69
2023/11/09 01:00:35;;;;;;;;;;;8.10;86.10;;;;;;5094071;28;20367;-69
2023/11/09 01:03:09;;;;;;;;;;;8.10;86.20;;;;;;5094811;28;20394;-69
2023/11/09 01:05:43;;;;;;;;;;;8.10;86.30;;;;;;5098378;28;19924;-68
2023/11/09 01:08:16;;;;;;;;;;;8.10;86.20;;;;;;5090798;28;19924;-67
2023/11/09 01:10:49;;;;;;;;;;;8.00;86.30;;;;;;5094974;28;19924;-68
2023/11/09 01:13:22;;;;;;;;;;;8.10;86.50;;;;;;5092540;28;19932;-69
2023/11/09 01:15:55;;;;;;;;;;;8.10;86.40;;;;;;5110449;28;19977;-68
2023/11/09 01:18:29;;;;;;;;;;;8.10;86.50;;;;;;5094603;28;19973;-67
2023/11/09 01:21:03;;;;;;;;;;;8.10;86.30;;;;;;5095846;28;19993;-67
2023/11/09 01:23:36;;;;;;;;;;;8.10;86.30;;;;;;5094050;28;19931;-68
2023/11/09 01:26:09;;;;;;;;;;;8.10;86.50;;;;;;5101293;28;19924;-68
2023/11/09 01:28:43;;;;;;;;;;;8.10;86.50;;;;;;5100462;28;19947;-68
2023/11/09 01:31:10;;;;;;;;;;;8.10;86.30;;;;;;5097515;28;19924;-68
2023/11/09 01:33:44;;;;;;;;;;;8.00;86.30;;;;;;5097408;28;20371;-68
2023/11/09 01:36:18;;;;;;;;;;;8.10;86.50;;;;;;5098736;28;19930;-68
2023/11/09 01:38:51;;;;;;;;;;;8.10;86.50;;;;;;5092003;27;19924;-68
2023/11/09 01:41:24;;;;;;;;;;;8.10;86.60;;;;;;5106082;28;19931;-68
2023/11/09 01:43:59;;;;;;;;;;;8.10;86.50;;;;;;5104068;27;19931;-67
2023/11/09 01:46:32;;;;;;;;;;;8.10;86.50;;;;;;5112016;27;19932;-68
2023/11/09 01:49:09;;;;;;;;;;;8.10;86.50;;;;;;5100744;28;19947;-73
2023/11/09 01:51:44;;;;;;;;;;;8.10;86.40;;;;;;5111155;27;19931;-72
2023/11/09 01:54:11;;;;;;;;;;;8.10;86.40;;;;;;5095875;28;20361;-71
2023/11/09 01:56:44;;;;;;;;;;;8.00;86.50;;;;;;5113458;27;20384;-71
2023/11/09 01:59:17;;;;;;;;;;;8.00;86.50;;;;;;5097949;28;19947;-70
2023/11/09 02:01:52;;;;;;;;;;;8.10;86.40;;;;;;5084006;28;19928;-71
2023/11/09 02:04:27;;;;;;;;;;;8.10;86.30;;;;;;5084435;28;19932;-72
2023/11/09 02:07:01;;;;;;;;;;;8.00;86.50;;;;;;5109768;27;19924;-72
2023/11/09 02:09:35;;;;;;;;;;;8.00;86.50;;;;;;5093974;28;19930;-73
2023/11/09 02:12:08;;;;;;;;;;;8.00;86.70;;;;;;5099116;28;19928;-71
2023/11/09 02:14:41;;;;;;;;;;;8.00;86.60;;;;;;5113144;27;20335;-72
2023/11/09 02:17:14;;;;;;;;;;;8.00;86.50;;;;;;5098058;28;20532;-72
2023/11/09 02:19:49;;;;;;;;;;;8.10;86.50;;;;;;5093559;28;20522;-72
2023/11/09 02:22:25;;;;;;;;;;;8.10;86.50;;;;;;5095721;28;19938;-71
2023/11/09 02:25:00;;;;;;;;;;;8.10;86.40;;;;;;5097240;28;19928;-71
2023/11/09 02:27:35;;;;;;;;;;;8.10;86.30;;;;;;5097219;28;19924;-72
2023/11/09 02:30:08;;;;;;;;;;;8.10;86.20;;;;;;5093340;28;19928;-71
2023/11/09 02:32:43;;;;;;;;;;;8.20;86.10;;;;;;5078044;28;19931;-72
2023/11/09 02:35:16;;;;;;;;;;;8.20;85.90;;;;;;5095148;28;20027;-72
2023/11/09 02:37:49;;;;;;;;;;;8.10;85.60;;;;;;5098767;28;20339;-73
2023/11/09 02:40:23;;;;;;;;;;;8.20;85.50;;;;;;5099066;27;19931;-74
2023/11/09 02:42:57;;;;;;;;;;;8.20;85.30;;;;;;5096527;28;20441;-71
2023/11/09 02:45:30;;;;;;;;;;;8.20;85.20;;;;;;5096328;28;19928;-73
2023/11/09 02:48:03;;;;;;;;;;;8.10;85.20;;;;;;5097536;28;19935;-72
2023/11/09 02:50:37;;;;;;;;;;;8.10;85.30;;;;;;5107749;27;19932;-71
2023/11/09 02:53:10;;;;;;;;;;;8.10;85.10;;;;;;5084872;27;19932;-76
2023/11/09 02:55:44;;;;;;;;;;;8.20;85.10;;;;;;5104754;27;19931;-76
2023/11/09 02:58:18;;;;;;;;;;;8.20;85.00;;;;;;5077489;28;19928;-66
2023/11/09 03:00:51;;;;;;;;;;;8.20;85.00;;;;;;5086446;27;19973;-66
2023/11/09 03:03:24;;;;;;;;;;;8.10;84.90;;;;;;5095800;27;19935;-66
2023/11/09 03:05:58;;;;;;;;;;;8.20;84.90;;;;;;5098081;28;19923;-67
2023/11/09 03:08:31;;;;;;;;;;;8.10;84.80;;;;;;5098211;28;19931;-66
2023/11/09 03:11:06;;;;;;;;;;;8.10;84.80;;;;;;5100296;27;19930;-66
2023/11/09 03:13:42;;;;;;;;;;;8.10;84.80;;;;;;5094603;28;19974;-65
2023/11/09 03:16:15;;;;;;;;;;;8.10;84.60;;;;;;5097634;28;20294;-65
2023/11/09 03:18:48;;;;;;;;;;;8.10;84.50;;;;;;5100929;28;19934;-65
2023/11/09 03:21:22;;;;;;;;;;;8.10;84.50;;;;;;5084597;28;19935;-65
2023/11/09 03:23:49;;;;;;;;;;;8.10;84.60;;;;;;5102780;28;19924;-67
2023/11/09 03:26:23;;;;;;;;;;;8.00;84.40;;;;;;5100887;28;20023;-65
2023/11/09 03:28:57;;;;;;;;;;;8.10;84.40;;;;;;5098050;28;19932;-66
2023/11/09 03:31:30;;;;;;;;;;;8.00;84.30;;;;;;5096822;28;19927;-65
2023/11/09 03:33:57;;;;;;;;;;;8.00;84.30;;;;;;5101510;28;19932;-65
2023/11/09 03:36:30;;;;;;;;;;;8.00;84.40;;;;;;5101866;28;20022;-67
2023/11/09 03:39:03;;;;;;;;;;;8.00;84.40;;;;;;5098359;28;20294;-67
2023/11/09 03:41:31;;;;;;;;;;;8.00;84.40;;;;;;5102060;28;19928;-65
2023/11/09 03:44:04;;;;;;;;;;;7.90;84.50;;;;;;5076329;28;19930;-64
2023/11/09 03:46:38;;;;;;;;;;;8.00;84.50;;;;;;5089283;27;20379;-64
2023/11/09 03:49:18;;;;;;;;;;;8.00;84.50;;;;;;5093014;28;19924;-66
2023/11/09 03:51:51;;;;;;;;;;;7.90;84.50;;;;;;5093591;28;19989;-65
2023/11/09 03:54:24;;;;;;;;;;;7.90;84.70;;;;;;5091794;28;19950;-64
2023/11/09 03:56:58;;;;;;;;;;;7.90;84.50;;;;;;5091776;28;19978;-64
2023/11/09 03:59:33;;;;;;;;;;;7.90;84.60;;;;;;5095265;28;20428;-66
2023/11/09 04:01:59;;;;;;;;;;;7.90;84.80;;;;;;5093746;28;19953;-64
2023/11/09 04:04:33;;;;;;;;;;;7.70;85.10;;;;;;5097756;28;19935;-64
2023/11/09 04:07:06;;;;;;;;;;;7.70;85.20;;;;;;5086218;28;19934;-64
2023/11/09 04:09:39;;;;;;;;;;;7.70;85.30;;;;;;5087148;28;19932;-66
2023/11/09 04:12:13;;;;;;;;;;;7.70;85.20;;;;;;5092024;27;19935;-67
2023/11/09 04:14:47;;;;;;;;;;;7.70;85.40;;;;;;5093269;28;19928;-66
2023/11/09 04:17:20;;;;;;;;;;;7.70;85.10;;;;;;5088088;28;19938;-66
2023/11/09 04:19:53;;;;;;;;;;;7.70;85.20;;;;;;5083854;28;19928;-67
2023/11/09 04:22:26;;;;;;;;;;;7.70;85.30;;;;;;5092872;28;20295;-66
2023/11/09 04:24:59;;;;;;;;;;;7.60;85.10;;;;;;5089947;28;19928;-67
2023/11/09 04:27:36;;;;;;;;;;;7.60;85.30;;;;;;5086285;28;20162;-67
2023/11/09 04:30:15;;;;;;;;;;;7.60;85.20;;;;;;5095306;28;19930;-67
2023/11/09 04:32:51;;;;;;;;;;;7.60;85.10;;;;;;5090860;28;19928;-67
2023/11/09 04:35:25;;;;;;;;;;;7.60;85.20;;;;;;5092544;28;19928;-67
2023/11/09 04:37:58;;;;;;;;;;;7.50;85.20;;;;;;5094440;28;19932;-67
2023/11/09 04:40:31;;;;;;;;;;;7.50;85.40;;;;;;5082539;28;19967;-66
2023/11/09 04:43:06;;;;;;;;;;;7.50;85.40;;;;;;5093549;28;19939;-67
2023/11/09 04:45:42;;;;;;;;;;;7.50;85.40;;;;;;5093381;28;20309;-67
2023/11/09 04:48:20;;;;;;;;;;;7.40;85.50;;;;;;5092969;28;19928;-67
2023/11/09 04:51:00;;;;;;;;;;;7.40;85.40;;;;;;5090629;28;19935;-67
2023/11/09 04:53:41;;;;;;;;;;;7.40;85.30;;;;;;5094108;28;19997;-67
2023/11/09 04:56:29;;;;;;;;;;;7.40;85.30;;;;;;5095251;28;19924;-66
2023/11/09 05:06:48;;;;;;;;;;;7.40;85.40;;;;;;5096657;28;19928;-66
2023/11/09 05:07:39;;;;;;;;;;;7.40;85.40;;;;;;5093309;28;19935;-67
2023/11/09 05:10:12;;;;;;;;;;;7.40;85.30;;;;;;5097917;28;19932;-67
2023/11/09 05:12:45;;;;;;;;;;;7.40;85.20;;;;;;5098635;27;19939;-66
2023/11/09 05:15:19;;;;;;;;;;;7.30;85.30;;;;;;5099309;28;19930;-67
2023/11/09 05:17:53;;;;;;;;;;;7.40;85.30;;;;;;5094767;28;20412;-67
2023/11/09 05:20:26;;;;;;;;;;;7.30;85.30;;;;;;5098819;28;19924;-60
2023/11/09 05:23:00;;;;;;;;;;;7.30;85.40;;;;;;5097334;27;19932;-61
2023/11/09 05:25:33;;;;;;;;;;;7.30;85.40;;;;;;5103341;28;19947;-61
2023/11/09 05:28:06;;;;;;;;;;;7.30;85.60;;;;;;5096341;28;19939;-59
2023/11/09 05:30:40;;;;;;;;;;;7.20;85.70;;;;;;5096427;28;19952;-60
2023/11/09 05:33:14;;;;;;;;;;;7.20;85.70;;;;;;5094019;28;19924;-61
2023/11/09 05:35:48;;;;;;;;;;;7.30;85.70;;;;;;5101388;28;19928;-60
2023/11/09 05:38:22;;;;;;;;;;;7.20;85.80;;;;;;5093940;28;19928;-59
2023/11/09 05:40:56;;;;;;;;;;;7.20;85.90;;;;;;5097008;28;19954;-61
2023/11/09 05:43:29;;;;;;;;;;;7.30;85.80;;;;;;5101807;28;20371;-61
2023/11/09 05:46:03;;;;;;;;;;;7.30;85.90;;;;;;5097259;27;19924;-61
2023/11/09 05:48:37;;;;;;;;;;;7.30;85.80;;;;;;5099687;27;19939;-60
2023/11/09 05:51:10;;;;;;;;;;;7.30;86.10;;;;;;5101326;28;20041;-61
2023/11/09 05:53:43;;;;;;;;;;;7.40;86.00;;;;;;5100276;28;19951;-61
2023/11/09 05:56:16;;;;;;;;;;;7.40;86.20;;;;;;5096286;28;19931;-61
2023/11/09 05:58:43;;;;;;;;;;;7.40;86.40;;;;;;5099494;28;20391;-61
2023/11/09 06:01:18;;;;;;;;;;;7.30;86.20;;;;;;5095637;28;19935;-61
2023/11/09 06:03:51;;;;;;;;;;;7.30;86.40;;;;;;5095900;28;19924;-61
2023/11/09 06:06:25;;;;;;;;;;;7.40;86.50;;;;;;5098789;28;19928;-61
2023/11/09 06:08:58;;;;;;;;;;;7.40;86.30;;;;;;5093982;28;19967;-62
2023/11/09 06:11:32;;;;;;;;;;;7.40;86.30;;;;;;5099152;27;19924;-60
2023/11/09 06:14:07;;;;;;;;;;;7.40;86.30;;;;;;5101415;28;20011;-61
2023/11/09 06:16:42;;;;;;;;;;;7.40;86.30;;;;;;5099841;28;19971;-62
2023/11/09 06:19:17;;;;;;;;;;;7.40;86.40;;;;;;5099906;28;19959;-61
2023/11/09 06:21:51;;;;;;;;;;;7.50;86.10;;;;;;5101691;28;19924;-62
2023/11/09 06:24:24;;;;;;;;;;;7.50;86.10;;;;;;5094809;28;19932;-61
2023/11/09 06:26:57;;;;;;;;;;;7.50;86.10;;;;;;5094760;28;20363;-61
2023/11/09 06:29:30;;;;;;;;;;;7.50;86.30;;;;;;5101380;28;19928;-61
2023/11/09 06:32:05;;;;;;;;;;;7.50;86.30;;;;;;5093774;28;19935;-60
2023/11/09 06:34:39;;;;;;;;;;;7.50;86.50;;;;;;5098645;28;19935;-60
2023/11/09 06:37:12;;;;;;;;;;;7.60;86.50;;;;;;5097871;28;19928;-61
2023/11/09 06:39:48;;;;;;;;;;;7.60;86.30;;;;;;5095748;27;20016;-60
2023/11/09 06:42:22;;;;;;;;;;;7.60;86.20;;;;;;5099900;28;20284;-60
2023/11/09 06:44:55;;;;;;;;;;;7.70;86.40;;;;;;5102281;28;19927;-61
2023/11/09 06:47:29;;;;;;;;;;;7.60;86.30;;;;;;5097945;28;19973;-60
2023/11/09 06:50:03;;;;;;;;;;;7.60;86.30;;;;;;5100263;28;19927;-63
2023/11/09 06:52:37;;;;;;;;;;;7.60;86.60;;;;;;5099977;28;19938;-61
2023/11/09 06:55:10;;;;;;;;;;;7.60;86.40;;;;;;5095619;28;20375;-60
2023/11/09 06:57:39;;;;;;;;;;;7.70;86.70;;;;;;5093110;28;20295;-60
2023/11/09 07:00:13;;;;;;;;;;;7.70;86.90;;;;;;5096536;28;19950;-59
2023/11/09 07:02:49;;;;;;;;;;;7.70;86.80;;;;;;5100121;28;20325;-60
2023/11/09 07:05:24;;;;;;;;;;;7.70;86.60;;;;;;5099474;28;19927;-61
2023/11/09 07:07:57;;;;;;;;;;;7.80;86.70;;;;;;5100644;27;19928;-62
2023/11/09 07:10:33;;;;;;;;;;;7.80;86.60;;;;;;5095073;28;20280;-61
2023/11/09 07:13:06;;;;;;;;;;;7.80;86.60;;;;;;5093936;27;19935;-60
2023/11/09 07:15:39;;;;;;;;;;;7.90;86.60;;;;;;5096243;27;19930;-61
2023/11/09 07:18:14;;;;;;;;;;;8.00;86.10;;;;;;5089415;27;19928;-60
2023/11/09 07:20:41;;;;;;;;;;;8.00;85.90;;;;;;5089091;28;19928;-60
2023/11/09 07:23:15;;;;;;;;;;;8.20;85.50;;;;;;5090606;27;20353;-58
2023/11/09 07:25:48;;;;;;;;;;;8.20;84.40;;;;;;5096050;28;20010;-59
2023/11/09 07:28:21;;;;;;;;;;;8.40;83.10;;;;;;5090993;27;19990;-60
2023/11/09 07:30:54;;;;;;;;;;;8.40;82.00;;;;;;5094493;28;20860;-60
2023/11/09 07:33:28;;;;;;;;;;;8.60;81.60;;;;;;5098664;28;21064;-60
2023/11/09 07:36:02;;;;;;;;;;;8.60;81.50;;;;;;5095127;28;20030;-60
2023/11/09 07:38:36;;;;;;;;;;;8.60;80.90;;;;;;5095079;28;20026;-61
2023/11/09 07:41:03;;;;;;;;;;;8.60;80.40;;;;;;5095245;28;19955;-62
2023/11/09 07:43:36;;;;;;;;;;;8.70;80.70;;;;;;5098683;28;19939;-62
2023/11/09 07:46:09;;;;;;;;;;;8.70;80.50;;;;;;5094266;28;20405;-62
2023/11/09 07:48:43;;;;;;;;;;;8.70;80.30;;;;;;5094993;28;20383;-61
2023/11/09 07:51:10;;;;;;;;;;;8.80;80.10;;;;;;5094855;28;19931;-61
2023/11/09 07:53:43;;;;;;;;;;;8.90;79.60;;;;;;5095919;28;19943;-61
2023/11/09 07:56:16;;;;;;;;;;;8.80;79.40;;;;;;5094599;28;19924;-61
2023/11/09 07:58:50;;;;;;;;;;;8.90;79.10;;;;;;5095036;28;19927;-61
2023/11/09 08:01:24;;;;;;;;;;;9.00;78.70;;;;;;5094548;28;19928;-61
2023/11/09 08:03:58;;;;;;;;;;;9.00;78.30;;;;;;5095563;28;20411;-61
2023/11/09 08:06:32;;;;;;;;;;;9.00;78.10;;;;;;5098161;27;19928;-61
2023/11/09 08:09:09;;;;;;;;;;;9.10;77.60;;;;;;5096108;28;19928;-62
2023/11/09 08:11:42;;;;;;;;;;;9.00;77.50;;;;;;5096750;28;19931;-62
2023/11/09 08:14:16;;;;;;;;;;;9.00;77.70;;;;;;5095501;28;19931;-62
2023/11/09 08:16:49;;;;;;;;;;;9.10;77.80;;;;;;5099412;28;20036;-62
2023/11/09 08:19:25;;;;;;;;;;;9.10;78.20;;;;;;5094680;28;19935;-62
2023/11/09 08:21:58;;;;;;;;;;;9.10;78.60;;;;;;5097351;28;19924;-62
2023/11/09 08:24:32;;;;;;;;;;;9.00;79.00;;;;;;5094725;28;19934;-62
2023/11/09 08:27:07;;;;;;;;;;;9.00;79.20;;;;;;5095206;28;19927;-62
2023/11/09 08:29:40;;;;;;;;;;;9.10;79.20;;;;;;5097763;28;20014;-62
2023/11/09 08:32:13;;;;;;;;;;;9.10;79.60;;;;;;5092911;28;20011;-62
2023/11/09 08:34:48;;;;;;;;;;;9.10;79.90;;;;;;5093243;28;19924;-61
2023/11/09 08:37:21;;;;;;;;;;;9.20;80.20;;;;;;5094504;28;20468;-61
2023/11/09 08:40:00;;;;;;;;;;;9.10;80.50;;;;;;5094601;28;20378;-61
2023/11/09 08:42:34;;;;;;;;;;;9.10;80.60;;;;;;5092790;28;19935;-61
2023/11/09 08:45:09;;;;;;;;;;;9.10;80.90;;;;;;5097915;28;20013;-62
2023/11/09 08:47:43;;;;;;;;;;;9.20;81.20;;;;;;5096046;28;19924;-62
2023/11/09 08:50:18;;;;;;;;;;;9.10;81.30;;;;;;5096580;28;19947;-74
2023/11/09 08:52:53;;;;;;;;;;;9.20;81.60;;;;;;5096453;28;19998;-74
2023/11/09 08:55:26;;;;;;;;;;;9.10;81.80;;;;;;5096277;28;19935;-74
2023/11/09 08:57:54;;;;;;;;;;;9.10;81.90;;;;;;5093003;28;20397;-74
2023/11/09 09:00:28;;;;;;;;;;;9.10;82.20;;;;;;5095129;28;19933;-74
2023/11/09 09:03:01;;;;;;;;;;;9.10;82.20;;;;;;5094788;28;20443;-74
2023/11/09 09:05:37;;;;;;;;;;;9.10;82.40;;;;;;5094231;28;20294;-75
2023/11/09 09:08:10;;;;;;;;;;;9.10;82.40;;;;;;5092655;28;19951;-74
2023/11/09 09:10:43;;;;;;;;;;;9.10;82.60;;;;;;5094786;28;19928;-73
2023/11/09 09:13:20;;;;;;;;;;;9.20;82.50;;;;;;5094379;28;19928;-72
2023/11/09 09:15:54;;;;;;;;;;;9.10;82.80;;;;;;5097776;28;20367;-74
2023/11/09 09:18:27;;;;;;;;;;;9.10;83.00;;;;;;5091064;28;20030;-75
2023/11/09 09:21:03;;;;;;;;;;;9.10;83.00;;;;;;5090575;28;20371;-75
2023/11/09 09:23:37;;;;;;;;;;;9.10;83.20;;;;;;5097437;28;19924;-73
2023/11/09 09:26:11;;;;;;;;;;;9.10;83.30;;;;;;5099240;28;20011;-76
2023/11/09 09:28:47;;;;;;;;;;;9.10;83.40;;;;;;5099986;28;20001;-75
2023/11/09 09:31:20;;;;;;;;;;;9.10;83.90;;;;;;5099997;28;19936;-75
2023/11/09 09:33:56;;;;;;;;;;;9.00;84.10;;;;;;5092157;28;20405;-77
2023/11/09 09:36:33;;;;;;;;;;;9.10;84.40;;;;;;5095769;28;19927;-75
2023/11/09 09:39:08;;;;;;;;;;;9.00;84.20;;;;;;5078495;28;20512;-75
2023/11/09 09:41:51;;;;;;;;;;;9.10;84.10;;;;;;5096891;28;19932;-75
2023/11/09 09:44:24;;;;;;;;;;;9.10;84.20;;;;;;5097379;28;20010;-73
2023/11/09 09:46:58;;;;;;;;;;;9.10;84.20;;;;;;5099291;28;19928;-74
2023/11/09 09:49:32;;;;;;;;;;;9.20;84.30;;;;;;5098152;28;19963;-74
2023/11/09 09:52:07;;;;;;;;;;;9.20;84.20;;;;;;5096841;28;19985;-74
2023/11/09 09:54:41;;;;;;;;;;;9.20;84.10;;;;;;5098961;28;19928;-75
2023/11/09 09:57:15;;;;;;;;;;;9.20;84.10;;;;;;5095027;28;19924;-73
2023/11/09 09:59:48;;;;;;;;;;;9.20;84.10;;;;;;5101598;28;19928;-66
2023/11/09 10:02:22;;;;;;;;;;;9.20;84.20;;;;;;5098005;27;19928;-65
2023/11/09 10:04:56;;;;;;;;;;;9.30;84.10;;;;;;5098352;28;19935;-64
2023/11/09 10:07:34;;;;;;;;;;;9.30;84.20;;;;;;5098267;28;20019;-65
2023/11/09 10:10:08;;;;;;;;;;;9.30;84.10;;;;;;5097792;28;19924;-64
2023/11/09 10:12:41;;;;;;;;;;;9.30;84.20;;;;;;5099846;28;19950;-65
2023/11/09 10:15:15;;;;;;;;;;;9.30;84.20;;;;;;5100163;28;20018;-65
2023/11/09 10:17:48;;;;;;;;;;;9.30;84.20;;;;;;5099276;27;19974;-64
2023/11/09 10:20:21;;;;;;;;;;;9.30;84.10;;;;;;5097382;28;19928;-64
2023/11/09 10:22:57;;;;;;;;;;;9.40;84.20;;;;;;5097468;28;19932;-64
2023/11/09 10:25:31;;;;;;;;;;;9.40;84.10;;;;;;5098542;28;20432;-65
2023/11/09 10:28:08;;;;;;;;;;;9.40;84.10;;;;;;5095475;28;19973;-65
2023/11/09 10:30:43;;;;;;;;;;;9.40;84.20;;;;;;5100897;28;19970;-65
2023/11/09 10:33:17;;;;;;;;;;;9.40;84.20;;;;;;5095916;27;19931;-65
2023/11/09 10:35:52;;;;;;;;;;;9.40;84.20;;;;;;5096726;28;19934;-64
2023/11/09 10:38:26;;;;;;;;;;;9.40;84.30;;;;;;5094756;28;19923;-64
2023/11/09 10:41:01;;;;;;;;;;;9.50;84.20;;;;;;5095638;28;20272;-64
2023/11/09 10:43:35;;;;;;;;;;;9.50;84.30;;;;;;5091616;28;20387;-65
2023/11/09 10:46:04;;;;;;;;;;;9.50;84.70;;;;;;5094144;28;19946;-65
2023/11/09 10:48:40;;;;;;;;;;;9.50;84.80;;;;;;5109683;27;19924;-64
2023/11/09 10:51:14;;;;;;;;;;;9.50;85.00;;;;;;5093158;28;19935;-65
2023/11/09 10:53:43;;;;;;;;;;;9.50;85.30;;;;;;5097232;28;19932;-64
2023/11/09 10:56:17;;;;;;;;;;;9.50;85.40;;;;;;5098994;28;20022;-64
2023/11/09 10:58:51;;;;;;;;;;;9.50;85.60;;;;;;5097489;28;19928;-64
2023/11/09 11:01:28;;;;;;;;;;;9.60;85.50;;;;;;5093818;27;20394;-63
2023/11/09 11:04:08;;;;;;;;;;;9.50;85.70;;;;;;5089203;28;19939;-64
2023/11/09 11:06:46;;;;;;;;;;;9.50;85.70;;;;;;5097222;28;19924;-65
2023/11/09 11:09:26;;;;;;;;;;;9.50;85.90;;;;;;5095313;28;19927;-72
2023/11/09 11:12:01;;;;;;;;;;;9.50;86.00;;;;;;5094804;28;19963;-75
2023/11/09 11:14:40;;;;;;;;;;;9.50;86.00;;;;;;5097450;28;20411;-72
2023/11/09 11:17:28;;;;;;;;;;;9.50;86.10;;;;;;5093863;27;19977;-73
2023/11/09 11:20:17;;;;;;;;;;;9.50;86.10;;;;;;5091640;28;19932;-72
2023/11/09 11:22:58;;;;;;;;;;;9.50;86.10;;;;;;5097813;27;19931;-72
2023/11/09 11:25:36;;;;;;;;;;;9.50;86.10;;;;;;5094571;28;19928;-73
2023/11/09 11:28:11;;;;;;;;;;;9.50;86.10;;;;;;5093412;28;19932;-73
2023/11/09 11:30:44;;;;;;;;;;;9.50;86.20;;;;;;5097571;28;19923;-74
2023/11/09 11:33:20;;;;;;;;;;;9.50;86.30;;;;;;5094361;27;19939;-73
2023/11/09 11:35:56;;;;;;;;;;;9.50;86.40;;;;;;5097322;28;19947;-73
2023/11/09 11:38:30;;;;;;;;;;;9.50;86.40;;;;;;5098296;28;19969;-73
2023/11/09 11:41:17;;;;;;;;;;;9.50;86.50;;;;;;5099531;28;19928;-72
2023/11/09 11:43:54;;;;;;;;;;;9.60;86.40;;;;;;5096622;28;19924;-72
2023/11/09 11:46:28;;;;;;;;;;;9.60;86.70;;;;;;5091748;28;19946;-72
2023/11/09 11:49:03;;;;;;;;;;;9.60;86.60;;;;;;5094659;28;19927;-73
2023/11/09 11:51:37;;;;;;;;;;;9.60;86.80;;;;;;5097671;28;20307;-74
2023/11/09 11:54:12;;;;;;;;;;;9.50;86.70;;;;;;5092571;28;19924;-73
2023/11/09 11:56:50;;;;;;;;;;;9.60;86.90;;;;;;5097424;28;19935;-71
2023/11/09 11:59:23;;;;;;;;;;;9.60;86.80;;;;;;5099273;28;19928;-73
2023/11/09 12:01:56;;;;;;;;;;;9.60;86.90;;;;;;5094216;28;19924;-72
2023/11/09 12:04:29;;;;;;;;;;;9.60;86.70;;;;;;5093400;28;20370;-72
2023/11/09 12:07:05;;;;;;;;;;;9.60;87.00;;;;;;5095839;28;20476;-73
2023/11/09 12:09:39;;;;;;;;;;;9.60;87.00;;;;;;5099131;28;19924;-73
2023/11/09 12:12:14;;;;;;;;;;;9.60;87.00;;;;;;5097621;28;20447;-73
2023/11/09 12:14:49;;;;;;;;;;;9.60;87.20;;;;;;5099589;28;20426;-72
2023/11/09 12:17:23;;;;;;;;;;;9.60;87.30;;;;;;5095216;28;19927;-72
2023/11/09 12:19:56;;;;;;;;;;;9.60;87.30;;;;;;5097882;28;19932;-61
2023/11/09 12:22:29;;;;;;;;;;;9.60;87.30;;;;;;5094577;28;20401;-61
2023/11/09 12:25:02;;;;;;;;;;;9.70;87.50;;;;;;5095304;28;19928;-61
2023/11/09 12:27:41;;;;;;;;;;;9.70;87.50;;;;;;5094728;28;19923;-62
2023/11/09 12:30:16;;;;;;;;;;;9.70;87.60;;;;;;5097834;28;19950;-62
2023/11/09 12:32:53;;;;;;;;;;;9.70;87.70;;;;;;5097976;28;19967;-61
2023/11/09 12:35:26;;;;;;;;;;;9.70;87.80;;;;;;5093692;28;20294;-61
2023/11/09 12:38:01;;;;;;;;;;;9.70;87.80;;;;;;5097771;28;20023;-62
2023/11/09 12:40:40;;;;;;;;;;;9.70;87.80;;;;;;5095110;28;19928;-62
2023/11/09 12:43:16;;;;;;;;;;;9.70;87.90;;;;;;5102149;28;19934;-61
2023/11/09 12:46:02;;;;;;;;;;;9.70;87.90;;;;;;5102408;28;19927;-61
2023/11/09 12:48:46;;;;;;;;;;;9.70;87.90;;;;;;5095088;28;19963;-62
2023/11/09 12:51:22;;;;;;;;;;;9.70;87.90;;;;;;5099138;28;20372;-63
2023/11/09 12:53:56;;;;;;;;;;;9.80;87.90;;;;;;5095547;28;19932;-61
2023/11/09 12:56:29;;;;;;;;;;;9.80;88.00;;;;;;5083292;28;19995;-62
2023/11/09 13:02:32;;;;;;;;;;;9.80;88.20;;;;;;5063936;28;19927;-62
2023/11/09 13:05:09;;;;;;;;;;;9.80;88.20;;;;;;5106310;28;20386;-61
2023/11/09 13:07:44;;;;;;;;;;;9.80;88.20;;;;;;5089461;28;20050;-61
2023/11/09 13:10:19;;;;;;;;;;;9.90;88.10;;;;;;5098668;28;19928;-61
2023/11/09 13:12:56;;;;;;;;;;;9.90;88.20;;;;;;5096868;28;19977;-61
2023/11/09 13:15:37;;;;;;;;;;;9.90;88.20;;;;;;5093188;28;19928;-61
2023/11/09 13:18:12;;;;;;;;;;;9.90;88.40;;;;;;5100175;28;19927;-62
2023/11/09 13:20:53;;;;;;;;;;;9.90;88.40;;;;;;5084443;28;20409;-61
2023/11/09 13:23:32;;;;;;;;;;;9.90;88.50;;;;;;5085878;27;19939;-59
2023/11/09 13:26:26;;;;;;;;;;;9.90;88.50;;;;;;5100932;27;19973;-60
2023/11/09 13:29:06;;;;;;;;;;;9.90;88.70;;;;;;5086506;27;19931;-62
2023/11/09 13:31:41;;;;;;;;;;;10.00;88.50;;;;;;5100386;28;19932;-61
2023/11/09 13:34:14;;;;;;;;;;;10.00;88.50;;;;;;5082172;28;19987;-60
2023/11/09 13:36:56;;;;;;;;;;;10.00;88.50;;;;;;5095795;28;20295;-61
2023/11/09 13:39:50;;;;;;;;;;;10.10;88.40;;;;;;5090295;28;20379;-68
2023/11/09 13:42:36;;;;;;;;;;;10.10;88.30;;;;;;5102637;28;19923;-68
2023/11/09 13:45:33;;;;;;;;;;;10.20;88.20;;;;;;5108835;27;19973;-67
2023/11/09 13:48:09;;;;;;;;;;;10.20;88.00;;;;;;5103225;28;19924;-67
2023/11/09 13:50:46;;;;;;;;;;;10.20;87.80;;;;;;5104356;27;20368;-66
2023/11/09 13:53:41;;;;;;;;;;;10.20;87.70;;;;;;5104685;28;20405;-67
2023/11/09 13:57:03;;;;;;;;;;;10.20;87.70;;;;;;5101345;28;20686;-68
2023/11/09 13:59:25;;;;;;;;;;;10.20;87.60;;;;;;5103566;28;19935;-68
2023/11/09 14:02:07;;;;;;;;;;;10.30;87.60;;;;;;5102643;28;19971;-67
2023/11/09 14:04:41;;;;;;;;;;;10.30;87.40;;;;;;5093096;28;19924;-67
2023/11/09 14:07:16;;;;;;;;;;;10.30;87.40;;;;;;5103793;28;19969;-67
2023/11/09 14:09:49;;;;;;;;;;;10.30;87.30;;;;;;5101191;28;19955;-67
2023/11/09 14:12:37;;;;;;;;;;;10.30;87.20;;;;;;5100999;28;19989;-67
2023/11/09 14:15:22;;;;;;;;;;;10.30;87.10;;;;;;5102535;28;19928;-67
2023/11/09 14:18:30;;;;;;;;;;;10.30;87.10;;;;;;5104593;28;20409;-67
2023/11/09 14:21:13;;;;;;;;;;;10.30;87.00;;;;;;5101891;28;20306;-67
2023/11/09 14:23:46;;;;;;;;;;;10.30;86.90;;;;;;5102411;28;20432;-68
2023/11/09 14:26:26;;;;;;;;;;;10.40;86.90;;;;;;5117711;27;20562;-67
2023/11/09 14:29:05;;;;;;;;;;;10.40;86.70;;;;;;5117375;27;19983;-68
2023/11/09 14:31:39;;;;;;;;;;;10.30;86.60;;;;;;5102053;28;19935;-68
2023/11/09 14:34:09;;;;;;;;;;;10.40;86.60;;;;;;5104080;28;20352;-67
2023/11/09 14:36:48;;;;;;;;;;;10.40;86.40;;;;;;5103177;28;19927;-67
2023/11/09 14:39:37;;;;;;;;;;;10.40;86.40;;;;;;5101683;27;20375;-67
2023/11/09 14:42:10;;;;;;;;;;;10.40;86.30;;;;;;5102657;28;20568;-67
2023/11/09 14:44:43;;;;;;;;;;;10.40;86.20;;;;;;5103376;28;19928;-66
2023/11/09 14:47:19;;;;;;;;;;;10.40;86.50;;;;;;5104247;27;19924;-68
2023/11/09 14:49:53;;;;;;;;;;;10.40;86.60;;;;;;5101632;28;19931;-66
2023/11/09 14:52:51;;;;;;;;;;;10.40;86.80;;;;;;5101330;28;19924;-65
2023/11/09 14:55:31;;;;;;;;;;;10.40;86.90;;;;;;5097578;28;20382;-67
2023/11/09 14:58:08;;;;;;;;;;;10.40;87.00;;;;;;5100303;28;19923;-67
2023/11/09 15:00:44;;;;;;;;;;;10.30;87.10;;;;;;5103123;28;19977;-67
2023/11/09 15:03:23;;;;;;;;;;;10.30;87.30;;;;;;5102544;28;20031;-67
2023/11/09 15:05:59;;;;;;;;;;;10.30;87.40;;;;;;5101569;28;19931;-66
2023/11/09 15:08:36;;;;;;;;;;;10.30;87.40;;;;;;5102647;27;19924;-67
2023/11/09 15:11:13;;;;;;;;;;;10.30;87.40;;;;;;5099992;28;19973;-65
2023/11/09 15:13:46;;;;;;;;;;;10.30;87.40;;;;;;5098130;28;19924;-66
2023/11/09 15:16:21;;;;;;;;;;;10.30;87.40;;;;;;5097747;28;19924;-66
2023/11/09 15:18:55;;;;;;;;;;;10.30;87.30;;;;;;5102797;27;20020;-67
2023/11/09 15:21:32;;;;;;;;;;;10.30;87.40;;;;;;5100673;27;19923;-66
2023/11/09 15:24:07;;;;;;;;;;;10.30;87.40;;;;;;5099074;28;19928;-65